AIRPORT ID: 20N

DATE: 2021-12-01 ZULU TIME: 15.35 LOCAL TIME: 10.35


METAR K20N 011535Z AUTO 00000KT 10SM 05/M01 A3013

ALTIMETER: A3013 Q1020

DENSITY ALT: -1100 Ft

WIND DIRECT: 260

WIND SPEED: 0 Gust

WIND CONDITIONS:

VISIBILTY: 10SM 9999M

TEMPERATURE: 41 F 5 C

DEW POINT: 31 F -1 C

HUMID: 69%

LCL: Above 5,000 feet

RADIO CHECK: 1

ADVISARIES: 4

GREETINGS: 0

CONVERSATIONS: 37